Floyd Dale, South Carolina
Current Conditions -  °F | °C
As of 4:55 PM on Monday 24 Nov 2014 (Local Time) from KMAO Reporting Station
Overcast Overcast  
Wind Chill: 66°   Ceiling: 6500
Heat Index: 66°   Visibility: 10mi
Dew Point: 64°   Wind: 10mph
Humidity: 94%   Direction: 180°S
Pressure: 29.86"   Gusts: NA
Location:  34.32°N, 79.34°W
Report Text: KMAO 242155Z AUTO 18009KT 10SM SCT060 OVC065 19/18 A2986 RMK AO2 P0006
Loading
Personal Weather Stations






























Interactive Weather Map New forecast layout! Learn more

10-Day Weather Forecast

Advertisements
Track Severe Weather on mobile